Hlavní strana
METAR-TAF:

METAR-TAF

Letiště :

Gwinnett County Airport (Briscoe Field)

Lawrenceville, Georgie, Spojené státy americké

zeměpisná šířka: 33-58-41N, zeměpisná délka: 083-57-45W, výška: 323 m

Aktuální stav počasí

Zpráva byla vytvořena před 23 minutami, v 17:56 UTC
vítr z různých směrů 4 kt
Teplota 8°C
Vlhkost vzduchu 93%
Tlak 1019 hPa
Viditelnost: 16.1 km
Oblačno až skoro zataženo ve výšce 800 ft
Oblačno až skoro zataženo ve výšce 1100 ft
Zataženo ve výšce 3500 ft
slabý déšť

METAR: KLZU 151756Z VRB04KT 10SM -RA BKN008 BKN011 OVC035 08/07 A3010 RMK AO2 SLP208 P0000 60010 T00830067 10083 20056 58016

Čas: 13:19 (18:19 UTC)


TAF: chybějící

Stav a předpovědi počasí z více než 4 000 letišť (zprávy METAR a TAF).

Červené a žluté tečky na mapě představují dostupné meteorologické stanice.

Když kurzor umístíte na tečku, zobrazí se název stanice.

Pak kliknutím zobrazíte stav a předpověď počasí.

Chcete-li změnit mapu, kliknutím na zelené tlačítko se znaménkem +mapu přiblížíte, kliknutím na zelené tlačítko se znaménkem – mapu oddálíte a kliknutím na zelené šipky přejdete na sousední mapy.


METAR-TAF: